Time;durP1;ratioP1;P1;durP2;ratioP2;P2;SDS_P1;SDS_P2;PMS_P1;PMS_P2;Temp;Humidity;BMP_temperature;BMP_pressure;BME280_temperature;BME280_humidity;BME280_pressure;Samples;Min_cycle;Max_cycle;Signal;HPM_P1;HPM_P2
2024/01/08 00:02:24;;;;;;;13.93;7.25;;;;;;;1.83;54.72;102964.97;4871979;28;123103;-74
2024/01/08 00:04:52;;;;;;;15.60;7.53;;;;;;;1.82;54.70;102958.00;4855968;28;115573;-73
2024/01/08 00:07:19;;;;;;;17.65;7.82;;;;;;;1.80;54.42;102954.47;4877423;28;114855;-74
2024/01/08 00:09:46;;;;;;;20.38;9.35;;;;;;;1.80;54.55;102957.09;4874240;28;124606;-74
2024/01/08 00:12:14;;;;;;;20.17;9.10;;;;;;;1.81;54.58;102956.22;4866807;28;123821;-73
2024/01/08 00:14:42;;;;;;;18.15;9.65;;;;;;;1.80;54.79;102962.31;4868401;28;114210;-73
2024/01/08 00:17:09;;;;;;;23.00;9.80;;;;;;;1.82;54.44;102963.22;4866017;28;114267;-73
2024/01/08 00:19:36;;;;;;;16.27;8.32;;;;;;;1.83;54.47;102967.59;4869870;28;124206;-73
2024/01/08 00:22:04;;;;;;;15.10;7.68;;;;;;;1.82;54.59;102965.84;4857932;28;122551;-73
2024/01/08 00:24:31;;;;;;;14.35;8.35;;;;;;;1.83;54.31;102967.59;4888516;28;113119;-73
2024/01/08 00:26:59;;;;;;;12.00;7.30;;;;;;;1.82;54.17;102971.06;4874944;28;114088;-73
2024/01/08 00:29:26;;;;;;;13.18;7.57;;;;;;;1.80;53.99;102967.53;4864590;28;124194;-74
2024/01/08 00:31:54;;;;;;;15.20;7.13;;;;;;;1.79;54.05;102970.97;4857831;28;123444;-74
2024/01/08 00:34:21;;;;;;;14.30;7.22;;;;;;;1.79;53.89;102968.34;4861238;28;115656;-74
2024/01/08 00:36:49;;;;;;;13.52;7.05;;;;;;;1.79;54.06;102955.31;4852236;28;114840;-74
2024/01/08 00:39:16;;;;;;;10.63;6.28;;;;;;;1.79;54.20;102961.44;4866880;28;124599;-74
2024/01/08 00:41:44;;;;;;;10.60;5.75;;;;;;;1.79;54.35;102958.81;4873901;28;123809;-74
2024/01/08 00:44:12;;;;;;;9.75;6.13;;;;;;;1.82;54.15;102965.84;4859651;28;114998;-74
2024/01/08 00:46:39;;;;;;;9.55;5.80;;;;;;;1.82;54.12;102960.63;4871012;28;114064;-73
2024/01/08 00:49:06;;;;;;;10.45;6.45;;;;;;;1.82;54.29;102965.84;4873925;28;124443;-73
2024/01/08 00:51:33;;;;;;;10.90;5.93;;;;;;;1.82;54.35;102960.63;4870895;28;124450;-74
2024/01/08 00:54:00;;;;;;;10.75;5.10;;;;;;;1.84;54.68;102956.31;4871596;28;115746;-73
2024/01/08 00:56:28;;;;;;;11.05;5.63;;;;;;;1.87;54.35;102959.00;4869546;28;113810;-71
2024/01/08 00:58:56;;;;;;;9.20;5.10;;;;;;;1.88;54.39;102961.63;4886128;28;123884;-72
2024/01/08 01:01:25;;;;;;;10.13;5.47;;;;;;;1.89;54.22;102962.53;4891059;28;122732;-72
2024/01/08 01:03:52;;;;;;;8.50;5.60;;;;;;;1.89;54.03;102962.53;4882676;28;115021;-72
2024/01/08 01:06:21;;;;;;;10.93;5.90;;;;;;;1.87;54.19;102961.63;4858542;28;114128;-72
2024/01/08 01:08:48;;;;;;;9.50;5.78;;;;;;;1.84;53.86;102956.31;4868773;28;124916;-71
2024/01/08 01:11:16;;;;;;;7.85;5.15;;;;;;;1.83;54.17;102957.13;4872217;28;124263;-72
2024/01/08 01:13:43;;;;;;;9.20;5.38;;;;;;;1.81;53.93;102956.22;4867202;28;114503;-72
2024/01/08 01:16:10;;;;;;;9.57;5.22;;;;;;;1.79;53.98;102970.97;4856300;28;114365;-72
2024/01/08 01:18:38;;;;;;;9.32;5.30;;;;;;;1.75;54.03;102973.53;4858942;28;123899;-73
2024/01/08 01:21:05;;;;;;;8.85;5.55;;;;;;;1.75;53.93;102981.38;4870391;28;123125;-72
2024/01/08 01:23:32;;;;;;;9.63;5.82;;;;;;;1.73;54.05;102977.84;4874156;28;115001;-72
2024/01/08 01:26:00;;;;;;;11.55;5.82;;;;;;;1.71;53.96;102979.53;4875839;28;114097;-72
2024/01/08 01:28:27;;;;;;;9.55;5.15;;;;;;;1.69;54.01;102986.41;4870039;28;124372;-72
2024/01/08 01:30:54;;;;;;;9.95;5.43;;;;;;;1.68;54.18;102989.88;4883753;28;122974;-72
2024/01/08 01:33:22;;;;;;;9.65;5.63;;;;;;;1.66;54.21;102990.69;4874332;28;114550;-72
2024/01/08 01:35:49;;;;;;;7.90;4.13;;;;;;;1.63;53.89;102991.47;4872759;28;113653;-72
2024/01/08 01:38:16;;;;;;;9.13;5.07;;;;;;;1.63;53.69;103001.91;4858309;28;123188;-72
2024/01/08 01:40:46;;;;;;;8.18;4.47;;;;;;;1.61;54.02;102993.16;4869927;28;123132;-72
2024/01/08 01:43:20;;;;;;;7.07;3.92;;;;;;;1.60;54.05;102991.41;4870118;28;114576;-71
2024/01/08 01:45:48;;;;;;;6.18;4.10;;;;;;;1.57;54.03;102999.16;4872695;28;114160;-71
2024/01/08 01:48:17;;;;;;;6.60;3.70;;;;;;;1.56;54.03;102989.53;4873095;28;124324;-71
2024/01/08 01:50:44;;;;;;;6.57;3.88;;;;;;;1.54;53.85;102988.59;4858611;28;122998;-72
2024/01/08 01:53:15;;;;;;;5.72;3.20;;;;;;;1.51;53.90;102996.38;4869691;28;115192;-72
2024/01/08 01:55:45;;;;;;;5.30;2.95;;;;;;;1.47;53.97;102989.28;4844764;28;113016;-73
2024/01/08 01:58:14;;;;;;;5.90;3.50;;;;;;;1.44;53.71;103000.53;4869199;28;123496;-72
2024/01/08 02:00:42;;;;;;;5.57;3.00;;;;;;;1.41;53.83;102989.13;4872898;28;123861;-73
2024/01/08 02:03:10;;;;;;;7.60;3.08;;;;;;;1.37;53.95;102988.16;4871584;28;113885;-73
2024/01/08 02:05:38;;;;;;;4.45;3.13;;;;;;;1.35;53.90;103001.16;4874400;28;114435;-73
2024/01/08 02:08:06;;;;;;;5.60;3.03;;;;;;;1.33;53.99;102992.41;4873798;28;124428;-73
2024/01/08 02:10:34;;;;;;;5.80;3.17;;;;;;;1.30;54.00;103002.78;4855688;28;124453;-73
2024/01/08 02:13:03;;;;;;;4.80;2.83;;;;;;;1.28;53.97;103004.47;4872542;28;114217;-73
2024/01/08 02:15:30;;;;;;;5.10;2.83;;;;;;;1.25;54.09;103004.38;4870732;28;114536;-73
2024/01/08 02:17:57;;;;;;;5.32;3.00;;;;;;;1.23;53.94;103003.44;4862337;28;123994;-73
2024/01/08 02:20:25;;;;;;;7.93;3.05;;;;;;;1.21;54.18;103001.63;4870942;28;123963;-73
2024/01/08 02:22:52;;;;;;;5.40;2.97;;;;;;;1.17;54.06;103000.66;4848031;28;113132;-73
2024/01/08 02:25:20;;;;;;;6.25;3.25;;;;;;;1.16;54.08;103006.69;4857011;28;114016;-73
2024/01/08 02:27:47;;;;;;;6.47;3.10;;;;;;;1.14;54.13;103006.66;4873934;28;124756;-73
2024/01/08 02:30:15;;;;;;;7.35;3.25;;;;;;;1.13;54.24;102998.78;4872268;28;124091;-73
2024/01/08 02:32:42;;;;;;;7.78;3.13;;;;;;;1.10;54.03;103003.94;4856769;28;114047;-73
2024/01/08 02:35:09;;;;;;;5.80;3.08;;;;;;;1.08;54.15;103005.63;4874963;28;115225;-73
2024/01/08 02:37:37;;;;;;;6.60;3.50;;;;;;;1.05;54.28;103000.28;4872300;28;124073;-73
2024/01/08 02:40:05;;;;;;;5.38;3.17;;;;;;;1.03;54.28;103010.69;4870460;28;123832;-73
2024/01/08 02:42:32;;;;;;;7.35;3.30;;;;;;;1.01;54.48;103008.88;4872186;28;115053;-72
2024/01/08 02:45:00;;;;;;;6.78;2.92;;;;;;;1.01;54.32;103006.25;4872646;28;113113;-72
2024/01/08 02:47:29;;;;;;;5.93;3.08;;;;;;;1.01;54.57;103014.97;4859803;28;123194;-71
2024/01/08 02:49:56;;;;;;;7.72;3.72;;;;;;;1.01;54.36;103008.88;4869112;28;124017;-71
2024/01/08 02:52:23;;;;;;;6.60;3.25;;;;;;;0.98;54.51;103004.47;4879203;28;114678;-71
2024/01/08 02:54:50;;;;;;;6.15;3.30;;;;;;;1.00;54.83;103007.09;4873279;28;114412;-71
2024/01/08 02:57:18;;;;;;;9.80;3.45;;;;;;;1.02;54.63;103005.41;4888839;28;123569;-71
2024/01/08 02:59:45;;;;;;;6.07;3.15;;;;;;;1.04;54.60;103008.97;4872330;28;124708;-71
2024/01/08 03:02:13;;;;;;;5.72;3.08;;;;;;;1.05;54.68;103015.94;4873731;28;114700;-71
2024/01/08 03:04:40;;;;;;;5.80;2.80;;;;;;;1.06;54.51;103012.50;4889127;28;112648;-71
2024/01/08 03:07:11;;;;;;;7.10;3.50;;;;;;;1.08;54.79;103016.06;4872202;28;124292;-71
2024/01/08 03:09:38;;;;;;;6.15;3.08;;;;;;;1.09;54.60;103012.59;4871040;28;123958;-71
2024/01/08 03:12:05;;;;;;;5.43;3.08;;;;;;;1.11;54.75;103010.91;4872418;28;114275;-71
2024/01/08 03:14:32;;;;;;;5.65;3.22;;;;;;;1.10;54.74;103010.03;4873443;28;115327;-71
2024/01/08 03:17:00;;;;;;;7.75;3.58;;;;;;;1.12;54.90;103007.47;4874096;28;124150;-71
2024/01/08 03:19:27;;;;;;;6.63;3.45;;;;;;;1.14;54.70;103016.22;4874460;28;124349;-71
2024/01/08 03:21:55;;;;;;;7.90;3.72;;;;;;;1.14;54.77;103016.22;4874383;28;115217;-71
2024/01/08 03:24:22;;;;;;;8.50;3.38;;;;;;;1.15;54.85;103018.00;4877887;28;114961;-71
2024/01/08 03:26:49;;;;;;;6.05;3.20;;;;;;;1.14;54.75;103018.81;4875879;28;124341;-71
2024/01/08 03:29:16;;;;;;;5.95;3.28;;;;;;;1.14;54.49;103017.09;4875603;28;124407;-71
2024/01/08 03:31:44;;;;;;;7.13;3.33;;;;;;;1.17;55.03;103016.31;4874673;28;114133;-71
2024/01/08 03:34:14;;;;;;;6.45;3.00;;;;;;;1.17;54.72;103018.94;4874506;28;114570;-71
2024/01/08 03:36:48;;;;;;;6.57;3.75;;;;;;;1.19;54.74;103014.63;4872742;28;123940;-71
2024/01/08 03:39:17;;;;;;;6.75;3.63;;;;;;;1.20;54.83;103016.38;4872470;28;122952;-71
2024/01/08 03:41:44;;;;;;;6.75;3.25;;;;;;;1.22;54.71;103017.31;4866224;28;114322;-71
2024/01/08 03:44:13;;;;;;;7.47;3.30;;;;;;;1.23;54.69;103016.50;4873882;28;114127;-71
2024/01/08 03:46:42;;;;;;;7.88;3.25;;;;;;;1.25;54.95;103014.81;4854414;28;124395;-71
2024/01/08 03:49:11;;;;;;;8.15;3.95;;;;;;;1.26;54.94;103013.06;4875249;28;124000;-71
2024/01/08 03:51:39;;;;;;;6.47;3.58;;;;;;;1.26;54.63;103015.69;4873931;28;114076;-71
2024/01/08 03:54:07;;;;;;;4.57;2.83;;;;;;;1.27;54.74;103018.34;4873593;28;112889;-71
2024/01/08 03:56:34;;;;;;;5.30;3.20;;;;;;;1.28;54.63;103009.69;4863283;28;123426;-71
2024/01/08 03:59:02;;;;;;;6.47;3.13;;;;;;;1.30;54.96;103012.31;4871614;28;124687;-71
2024/01/08 04:01:29;;;;;;;5.22;3.38;;;;;;;1.32;54.81;103002.81;4867379;28;114274;-71
2024/01/08 04:03:56;;;;;;;7.65;3.25;;;;;;;1.32;54.68;102997.59;4881023;28;113310;-71
2024/01/08 04:06:25;;;;;;;8.25;3.15;;;;;;;1.33;54.82;103018.50;4870788;28;124735;-71
2024/01/08 04:08:52;;;;;;;6.95;3.33;;;;;;;1.35;54.60;103011.59;4854370;28;124020;-71
2024/01/08 04:11:19;;;;;;;6.70;3.35;;;;;;;1.35;54.74;103027.25;4887010;28;114378;-71
2024/01/08 04:13:47;;;;;;;4.50;2.83;;;;;;;1.36;54.84;103018.59;4877524;28;115133;-71
2024/01/08 04:16:14;;;;;;;5.50;3.22;;;;;;;1.36;54.67;103010.78;4859619;28;122836;-71
2024/01/08 04:18:41;;;;;;;5.93;3.40;;;;;;;1.39;55.17;103016.91;4872812;28;123439;-71
2024/01/08 04:21:09;;;;;;;7.05;3.85;;;;;;;1.41;54.89;103015.22;4869487;28;114795;-71
2024/01/08 04:23:36;;;;;;;4.88;3.08;;;;;;;1.41;54.89;103010.88;4874230;28;114685;-71
2024/01/08 04:26:03;;;;;;;6.60;3.47;;;;;;;1.43;54.89;103018.75;4890723;28;123714;-71
2024/01/08 04:28:31;;;;;;;7.60;3.78;;;;;;;1.45;54.90;103017.06;4868586;28;123895;-71
2024/01/08 04:30:58;;;;;;;9.20;3.70;;;;;;;1.44;54.79;103015.31;4873614;28;113138;-71
2024/01/08 04:33:26;;;;;;;7.18;3.50;;;;;;;1.46;54.82;103024.09;4854200;28;115051;-71
2024/01/08 04:35:53;;;;;;;5.90;3.38;;;;;;;1.47;54.80;103025.84;4871393;28;124768;-71
2024/01/08 04:38:21;;;;;;;5.80;3.30;;;;;;;1.48;54.77;103022.41;4859504;28;122800;-71
2024/01/08 04:40:48;;;;;;;7.22;3.80;;;;;;;1.50;54.89;103015.50;4874394;28;114338;-72
2024/01/08 04:43:15;;;;;;;6.65;3.55;;;;;;;1.49;54.54;103008.50;4872000;28;113858;-71
2024/01/08 04:45:43;;;;;;;8.95;3.85;;;;;;;1.48;54.89;103009.34;4874920;28;124351;-71
2024/01/08 04:48:14;;;;;;;9.05;4.45;;;;;;;1.49;54.88;103011.13;4871186;28;123796;-71
2024/01/08 04:50:41;;;;;;;7.72;3.95;;;;;;;1.47;54.79;103008.47;4867879;28;113211;-71
2024/01/08 04:53:08;;;;;;;10.23;3.97;;;;;;;1.47;54.97;103018.00;4864936;28;113042;-71
2024/01/08 04:55:36;;;;;;;6.65;3.40;;;;;;;1.47;54.98;103004.94;4873092;28;124105;-71
2024/01/08 04:58:08;;;;;;;7.10;4.25;;;;;;;1.48;55.18;103014.56;4873427;28;123862;-72
2024/01/08 05:00:35;;;;;;;6.70;3.85;;;;;;;1.47;54.84;103015.38;4883734;28;114647;-71
2024/01/08 05:03:03;;;;;;;9.02;4.03;;;;;;;1.48;55.05;103017.19;4875020;28;114668;-71
2024/01/08 05:05:30;;;;;;;6.57;3.90;;;;;;;1.47;54.97;103015.38;4855412;28;123151;-71
2024/01/08 05:07:58;;;;;;;10.25;4.15;;;;;;;1.48;55.20;103011.94;4863631;28;124123;-72
2024/01/08 05:10:25;;;;;;;8.80;4.10;;;;;;;1.50;55.16;103015.50;4869021;28;113630;-71
2024/01/08 05:12:53;;;;;;;6.10;3.50;;;;;;;1.51;55.21;103012.06;4870207;28;114182;-71
2024/01/08 05:15:20;;;;;;;7.15;3.90;;;;;;;1.52;55.23;103013.81;4859209;28;124766;-72
2024/01/08 05:17:47;;;;;;;6.32;3.58;;;;;;;1.52;55.28;103013.81;4876553;28;124617;-71
2024/01/08 05:20:15;;;;;;;7.03;3.92;;;;;;;1.55;55.32;103008.69;4871153;28;114082;-72
2024/01/08 05:22:43;;;;;;;9.48;3.85;;;;;;;1.56;55.21;103007.81;4867437;28;114521;-72
2024/01/08 05:25:10;;;;;;;10.68;4.50;;;;;;;1.57;55.25;103017.44;4867506;28;124441;-72
2024/01/08 05:27:38;;;;;;;7.25;3.90;;;;;;;1.56;55.27;103015.66;4867914;28;125257;-72
2024/01/08 05:30:06;;;;;;;11.65;3.97;;;;;;;1.58;55.47;103013.97;4859949;28;113514;-72
2024/01/08 05:32:33;;;;;;;9.38;4.20;;;;;;;1.59;55.34;103005.28;4859108;28;112953;-72
2024/01/08 05:35:01;;;;;;;8.50;4.07;;;;;;;1.61;55.11;103007.97;4860420;28;124206;-72
2024/01/08 05:37:29;;;;;;;8.32;3.95;;;;;;;1.62;55.41;103005.41;4888770;28;121778;-72
2024/01/08 05:39:56;;;;;;;8.93;4.20;;;;;;;1.62;55.49;103005.41;4857007;28;114276;-72
2024/01/08 05:42:24;;;;;;;6.88;3.88;;;;;;;1.64;55.49;103003.69;4872128;28;114669;-72
2024/01/08 05:44:51;;;;;;;9.75;4.95;;;;;;;1.66;55.51;103006.38;4873554;28;122831;-72
2024/01/08 05:47:19;;;;;;;8.98;4.32;;;;;;;1.66;55.83;103002.00;4869209;28;123996;-72
2024/01/08 05:49:46;;;;;;;8.02;4.45;;;;;;;1.67;55.60;103003.75;4873131;28;115766;-72
2024/01/08 05:52:14;;;;;;;8.90;4.28;;;;;;;1.66;55.39;103007.25;4872999;28;115025;-71
2024/01/08 05:54:41;;;;;;;9.35;4.68;;;;;;;1.67;55.62;103003.75;4856387;28;123844;-72
2024/01/08 05:57:09;;;;;;;8.75;4.57;;;;;;;1.67;55.75;102997.66;4872683;28;123727;-71
2024/01/08 05:59:36;;;;;;;9.15;4.60;;;;;;;1.68;55.89;103008.16;4859934;28;113285;-72
2024/01/08 06:02:07;;;;;;;6.97;4.22;;;;;;;1.69;55.70;103007.31;4858130;28;114696;-71
2024/01/08 06:04:35;;;;;;;10.35;4.57;;;;;;;1.70;55.53;103002.97;4872433;28;123934;-71
2024/01/08 06:07:02;;;;;;;9.85;4.53;;;;;;;1.69;55.45;103006.44;4874376;28;123326;-72
2024/01/08 06:09:29;;;;;;;8.68;4.50;;;;;;;1.70;55.81;103008.22;4873384;28;114237;-72
2024/01/08 06:11:58;;;;;;;11.38;4.43;;;;;;;1.71;55.78;103000.41;4858234;28;112985;-71
2024/01/08 06:14:25;;;;;;;10.82;4.80;;;;;;;1.72;55.75;103006.53;4883130;28;123700;-72
2024/01/08 06:16:53;;;;;;;7.40;4.20;;;;;;;1.73;55.80;103003.94;4869058;28;124016;-71
2024/01/08 06:19:21;;;;;;;8.63;4.13;;;;;;;1.74;55.92;103000.47;4872908;28;114381;-72
2024/01/08 06:21:49;;;;;;;8.88;4.43;;;;;;;1.75;55.85;103006.56;4872580;28;114110;-72
2024/01/08 06:24:16;;;;;;;14.77;5.43;;;;;;;1.78;55.86;103003.19;4873693;28;124088;-71
2024/01/08 06:26:44;;;;;;;10.20;5.03;;;;;;;1.77;55.76;103001.41;4869257;28;123973;-72
2024/01/08 06:29:12;;;;;;;10.43;4.93;;;;;;;1.79;55.89;103007.53;4873822;28;113972;-72
2024/01/08 06:31:40;;;;;;;9.18;4.63;;;;;;;1.79;55.98;103003.22;4872806;28;114214;-72
2024/01/08 06:34:07;;;;;;;9.63;4.80;;;;;;;1.82;55.93;103002.41;4858811;28;123742;-72
2024/01/08 06:36:34;;;;;;;7.90;4.45;;;;;;;1.83;56.02;103004.16;4873837;28;123593;-72
2024/01/08 06:39:02;;;;;;;8.38;4.35;;;;;;;1.83;55.85;102988.50;4869473;28;115336;-72
2024/01/08 06:41:31;;;;;;;9.90;5.18;;;;;;;1.84;56.02;102996.38;4862524;28;115042;-73
2024/01/08 06:43:59;;;;;;;11.52;5.28;;;;;;;1.86;56.38;102999.03;4856288;28;124779;-69
2024/01/08 06:46:27;;;;;;;11.25;5.10;;;;;;;1.86;56.00;102999.03;4872804;28;123609;-70
2024/01/08 06:48:54;;;;;;;9.68;4.80;;;;;;;1.86;56.18;103009.47;4869864;28;114378;-69
2024/01/08 06:51:22;;;;;;;8.48;4.50;;;;;;;1.88;56.43;103002.56;4882990;28;114125;-72
2024/01/08 06:53:51;;;;;;;9.27;4.90;;;;;;;1.91;56.09;103007.88;4877679;28;124228;-72
2024/01/08 06:56:19;;;;;;;8.35;4.78;;;;;;;1.92;55.95;103007.03;4871102;28;124091;-69
2024/01/08 06:58:47;;;;;;;9.60;4.78;;;;;;;1.92;56.21;103012.25;4866940;28;114218;-69
2024/01/08 07:01:15;;;;;;;10.43;5.00;;;;;;;1.93;56.24;103000.97;4841059;28;110136;-68
2024/01/08 07:03:44;;;;;;;8.45;4.78;;;;;;;1.96;56.29;103006.28;4887519;28;123351;-68
2024/01/08 07:06:38;;;;;;;9.23;4.82;;;;;;;1.97;56.23;103023.72;4868164;28;123256;-69
2024/01/08 07:09:06;;;;;;;8.70;4.63;;;;;;;1.98;56.03;103015.03;4864322;28;113965;-69
2024/01/08 07:12:01;;;;;;;9.75;4.95;;;;;;;1.98;56.48;103015.03;4872756;28;113473;-68
2024/01/08 07:14:28;;;;;;;8.25;4.50;;;;;;;1.99;55.97;103019.41;4866365;28;124106;-68
2024/01/08 07:16:57;;;;;;;11.75;4.85;;;;;;;1.99;56.36;103032.47;4874012;28;124688;-68
2024/01/08 07:19:24;;;;;;;11.07;5.18;;;;;;;2.01;56.30;103022.94;4867590;28;114844;-69
2024/01/08 07:22:02;;;;;;;12.95;5.25;;;;;;;2.02;56.44;103022.09;4872521;28;113875;-68
2024/01/08 07:24:30;;;;;;;10.25;4.78;;;;;;;2.06;56.32;103031.78;4882603;28;123777;-68
2024/01/08 07:26:57;;;;;;;9.18;4.47;;;;;;;2.08;56.40;103031.84;4871301;28;123187;-68
2024/01/08 07:29:24;;;;;;;8.50;4.45;;;;;;;2.12;56.57;103026.72;4865755;28;114346;-68
2024/01/08 07:31:51;;;;;;;14.75;4.88;;;;;;;2.14;56.28;103024.13;4864363;28;115362;-68
2024/01/08 07:34:20;;;;;;;9.32;4.45;;;;;;;2.15;56.29;103023.31;4855442;28;123235;-68
2024/01/08 07:36:47;;;;;;;8.50;4.75;;;;;;;2.14;56.19;103027.63;4867975;28;124240;-69
2024/01/08 07:39:14;;;;;;;8.70;4.55;;;;;;;2.15;56.22;103036.38;4872662;28;114228;-69
2024/01/08 07:41:42;;;;;;;9.30;4.70;;;;;;;2.16;56.44;103029.41;4856336;28;114137;-69
2024/01/08 07:44:11;;;;;;;10.05;4.53;;;;;;;2.19;56.36;103037.34;4874541;28;123316;-69
2024/01/08 07:46:38;;;;;;;8.63;4.93;;;;;;;2.18;56.44;103032.94;4868765;28;123608;-69
2024/01/08 07:49:05;;;;;;;11.45;4.40;;;;;;;2.18;56.37;103033.81;4862738;28;114287;-69
2024/01/08 07:51:33;;;;;;;9.88;4.53;;;;;;;2.19;56.52;103039.97;4862006;28;113914;-69
2024/01/08 07:54:01;;;;;;;8.00;3.83;;;;;;;2.19;56.36;103037.34;4847869;28;123091;-69
2024/01/08 07:56:28;;;;;;;8.20;4.38;;;;;;;2.19;56.27;103034.72;4857917;28;124820;-69
2024/01/08 07:58:55;;;;;;;8.48;4.57;;;;;;;2.20;56.24;103036.47;4852624;28;114677;-69
2024/01/08 08:01:23;;;;;;;8.10;4.40;;;;;;;2.20;56.07;103041.72;4859616;28;113204;-69
2024/01/08 08:03:52;;;;;;;9.15;4.32;;;;;;;2.21;56.44;103039.13;4858895;28;123167;-69
2024/01/08 08:06:19;;;;;;;9.43;4.43;;;;;;;2.22;56.15;103040.00;4856975;28;122806;-69
2024/01/08 08:08:47;;;;;;;9.07;3.75;;;;;;;2.22;56.55;103040.00;4868623;28;114552;-69
2024/01/08 08:11:14;;;;;;;8.77;3.75;;;;;;;2.22;56.28;103045.25;4867917;28;114515;-69
2024/01/08 08:13:42;;;;;;;9.27;4.25;;;;;;;2.22;56.41;103050.47;4862226;28;123365;-71
2024/01/08 08:16:09;;;;;;;11.00;4.18;;;;;;;2.22;56.04;103050.47;4869911;28;124058;-69
2024/01/08 08:18:39;;;;;;;8.15;3.67;;;;;;;2.23;56.20;103044.41;4871823;28;114063;-69
2024/01/08 08:21:06;;;;;;;9.05;3.70;;;;;;;2.23;56.17;103053.13;4855762;28;114797;-69
2024/01/08 08:23:33;;;;;;;8.20;3.83;;;;;;;2.22;56.12;103047.84;4859098;28;123464;-69
2024/01/08 08:26:02;;;;;;;11.10;4.50;;;;;;;2.19;56.19;103053.03;4861950;28;123435;-69
2024/01/08 08:28:30;;;;;;;9.95;4.18;;;;;;;2.20;56.19;103060.00;4882627;28;114575;-69
2024/01/08 08:30:58;;;;;;;9.23;4.03;;;;;;;2.20;56.18;103062.63;4873219;28;112409;-69
2024/01/08 08:33:25;;;;;;;7.20;3.47;;;;;;;2.20;56.24;103062.63;4885878;28;123453;-69
2024/01/08 08:35:55;;;;;;;8.25;3.90;;;;;;;2.23;56.34;103057.47;4867815;28;124836;-69
2024/01/08 08:38:23;;;;;;;6.78;3.90;;;;;;;2.23;56.48;103052.25;4884865;28;113284;-69
2024/01/08 08:40:50;;;;;;;9.50;4.20;;;;;;;2.22;56.13;103071.38;4871140;28;114249;-69
2024/01/08 08:43:18;;;;;;;8.70;4.00;;;;;;;2.22;56.15;103074.00;4853653;28;124052;-69
2024/01/08 08:45:45;;;;;;;8.40;3.15;;;;;;;2.21;56.32;103064.41;4858776;28;123187;-69
2024/01/08 08:48:12;;;;;;;8.15;3.85;;;;;;;2.21;56.74;103075.75;4870130;28;114976;-69
2024/01/08 08:50:40;;;;;;;7.47;4.30;;;;;;;2.21;56.31;103080.97;4865768;28;114023;-69
2024/01/08 08:53:07;;;;;;;6.82;3.97;;;;;;;2.22;56.32;103076.63;4872575;28;124057;-69
2024/01/08 08:55:36;;;;;;;6.38;3.92;;;;;;;2.22;56.58;103072.25;4855870;28;124859;-69
2024/01/08 08:58:08;;;;;;;11.20;4.20;;;;;;;2.24;56.42;103085.38;4867594;28;114202;-69
2024/01/08 09:00:36;;;;;;;9.02;3.85;;;;;;;2.24;56.57;103085.38;4871716;28;114023;-69
2024/01/08 09:03:04;;;;;;;8.57;4.40;;;;;;;2.21;56.69;103080.09;4880673;28;123318;-69
2024/01/08 09:05:32;;;;;;;8.45;4.32;;;;;;;2.20;56.76;103078.31;4864290;28;123964;-69
2024/01/08 09:08:09;;;;;;;8.52;4.25;;;;;;;2.19;57.21;103071.31;4869387;28;115486;-69
2024/01/08 09:10:36;;;;;;;8.80;4.03;;;;;;;2.18;56.77;103077.38;4869707;28;114848;-69
2024/01/08 09:13:03;;;;;;;7.15;4.15;;;;;;;2.18;56.81;103080.00;4862907;28;123094;-69
2024/01/08 09:15:31;;;;;;;7.25;4.07;;;;;;;2.16;56.95;103086.91;4873386;28;122887;-69
2024/01/08 09:17:58;;;;;;;7.53;4.15;;;;;;;2.16;56.93;103092.16;4872737;28;113999;-69
2024/01/08 09:20:26;;;;;;;8.77;4.20;;;;;;;2.14;56.98;103090.38;4868852;28;113889;-69
2024/01/08 09:22:53;;;;;;;7.97;3.90;;;;;;;2.14;56.96;103090.38;4865533;28;124045;-69
2024/01/08 09:25:21;;;;;;;8.25;4.40;;;;;;;2.16;57.10;103092.16;4891039;28;123989;-69
2024/01/08 09:27:48;;;;;;;9.40;4.03;;;;;;;2.16;57.08;103089.53;4861874;28;114391;-69
2024/01/08 09:30:16;;;;;;;8.50;4.40;;;;;;;2.18;57.20;103100.91;4865695;28;114292;-70
2024/01/08 09:32:47;;;;;;;9.27;4.82;;;;;;;2.19;57.53;103097.47;4857822;28;125182;-69
2024/01/08 09:35:15;;;;;;;8.63;4.65;;;;;;;2.19;57.11;103102.69;4880905;28;123006;-69
2024/01/08 09:37:43;;;;;;;9.18;3.97;;;;;;;2.21;57.09;103106.22;4873234;28;114325;-69
2024/01/08 09:40:11;;;;;;;8.30;4.65;;;;;;;2.23;57.32;103112.38;4857160;28;114459;-69
2024/01/08 09:42:40;;;;;;;9.18;4.10;;;;;;;2.23;57.24;103115.00;4886577;28;125041;-69
2024/01/08 09:45:14;;;;;;;10.68;3.85;;;;;;;2.21;56.96;103112.34;4873474;28;123939;-70
2024/01/08 09:48:01;;;;;;;8.80;4.68;;;;;;;2.19;57.20;103107.94;4873231;28;114361;-69
2024/01/08 09:50:29;;;;;;;5.78;3.75;;;;;;;2.21;57.28;103121.91;4873761;28;113971;-69
2024/01/08 09:53:20;;;;;;;7.45;4.00;;;;;;;2.19;57.25;103113.16;4860000;28;123020;-69
2024/01/08 09:56:13;;;;;;;8.52;4.40;;;;;;;2.19;57.07;103113.16;4880418;23;124659;-69
2024/01/08 09:58:48;;;;;;;7.65;4.32;;;;;;;2.18;57.13;103107.00;4890778;23;115654;-70
2024/01/08 10:01:16;;;;;;;8.93;4.60;;;;;;;2.19;57.22;103105.31;4869652;28;114906;-70
2024/01/08 10:03:43;;;;;;;5.72;3.58;;;;;;;2.19;57.04;103105.31;4859620;28;123623;-70
2024/01/08 10:06:11;;;;;;;10.18;3.70;;;;;;;2.21;57.45;103114.06;4870908;28;124170;-70
2024/01/08 10:08:38;;;;;;;6.70;3.75;;;;;;;2.22;56.88;103110.59;4873445;28;114213;-70
2024/01/08 10:11:07;;;;;;;11.30;4.15;;;;;;;2.23;57.05;103105.41;4873888;28;113928;-70
2024/01/08 10:13:35;;;;;;;8.32;4.18;;;;;;;2.25;56.95;103102.84;4848443;29;123826;-70
2024/01/08 10:16:03;;;;;;;8.52;4.40;;;;;;;2.27;56.79;103098.53;4856428;28;124008;-70
2024/01/08 10:18:31;;;;;;;8.57;3.90;;;;;;;2.31;56.69;103103.00;4860440;28;114182;-71
2024/01/08 10:21:13;;;;;;;8.02;3.50;;;;;;;2.32;56.34;103099.56;4873582;28;114077;-71
2024/01/08 10:32:47;;;;;;;6.63;3.78;;;;;;;2.40;56.05;103087.53;4922694;28;98778;-70
2024/01/08 10:35:15;;;;;;;5.88;3.70;;;;;;;2.43;55.39;103092.88;4906930;28;123877;-70
2024/01/08 10:42:11;;;;;;;5.45;3.30;;;;;;;2.46;55.26;103087.69;4929825;28;115089;-70
2024/01/08 10:44:38;;;;;;;6.32;3.40;;;;;;;2.49;54.93;103082.53;4932008;28;113980;-69
2024/01/08 10:47:09;;;;;;;6.57;3.35;;;;;;;2.52;55.18;103086.97;4919013;28;125113;-70
2024/01/08 10:49:45;;;;;;;5.70;3.30;;;;;;;2.59;55.27;103086.25;4923331;28;124226;-71
2024/01/08 10:52:21;;;;;;;7.15;3.92;;;;;;;2.65;55.14;103080.28;4907523;28;114271;-70
2024/01/08 10:54:53;;;;;;;6.72;3.50;;;;;;;2.68;55.02;103090.84;4899415;28;115117;-70
2024/01/08 10:57:24;;;;;;;6.72;3.85;;;;;;;2.71;55.04;103083.97;4924173;28;124326;-70
2024/01/08 10:59:52;;;;;;;6.65;3.40;;;;;;;2.77;54.90;103078.00;4922371;28;123255;-70
2024/01/08 11:02:21;;;;;;;6.25;3.35;;;;;;;2.79;54.89;103076.28;4905867;28;114049;-70
2024/01/08 11:04:49;;;;;;;5.03;3.30;;;;;;;2.82;54.70;103071.09;4906879;28;113437;-70
2024/01/08 11:07:20;;;;;;;5.85;3.30;;;;;;;2.82;53.83;103065.00;4905511;28;124132;-72
2024/01/08 11:09:47;;;;;;;5.72;3.03;;;;;;;2.82;53.61;103065.88;4931284;28;124376;-70
2024/01/08 11:12:15;;;;;;;6.10;3.60;;;;;;;2.83;53.77;103059.81;4929822;28;113828;-69
2024/01/08 11:14:45;;;;;;;4.78;2.90;;;;;;;2.86;53.81;103067.72;4910715;28;113269;-69
2024/01/08 11:17:15;;;;;;;5.22;3.30;;;;;;;2.91;54.01;103066.09;4923212;28;124108;-69
2024/01/08 11:19:45;;;;;;;6.78;3.50;;;;;;;3.01;54.18;103061.06;4916246;28;123507;-69
2024/01/08 11:22:15;;;;;;;6.32;3.75;;;;;;;3.10;54.41;103059.53;4927341;28;114329;-69
2024/01/08 11:24:43;;;;;;;5.07;3.03;;;;;;;3.19;54.31;103058.84;4917180;28;114014;-69
2024/01/08 11:27:11;;;;;;;6.43;3.00;;;;;;;3.23;53.99;103063.28;4916304;28;123953;-69
2024/01/08 11:29:39;;;;;;;5.72;3.15;;;;;;;3.26;54.16;103063.38;4906004;28;124016;-69
2024/01/08 11:32:32;;;;;;;6.00;3.50;;;;;;;3.26;53.58;103058.13;4906567;28;114717;-69
2024/01/08 11:35:00;;;;;;;7.07;3.47;;;;;;;3.23;53.20;103058.06;4910021;28;112808;-69
2024/01/08 11:37:39;;;;;;;5.97;3.03;;;;;;;3.17;52.84;103050.06;4929772;28;123811;-69
2024/01/08 11:40:17;;;;;;;7.28;3.50;;;;;;;3.09;52.66;103051.66;4933582;28;123829;-69
2024/01/08 11:42:47;;;;;;;4.93;2.75;;;;;;;3.04;52.70;103061.13;4933133;28;115810;-69
2024/01/08 11:45:16;;;;;;;7.35;3.45;;;;;;;3.01;52.67;103050.59;4933464;28;114997;-69